Kasagimaru — JJ3905 — position and weather

sailwx.info

Track history (hours):
 
Tides and Currents Weather Stations Pressure Air Temp Water Temp Dewpoint Dewpoint Depression Visibility Wind Speed Wind Dir Waves Ship Positions

Kasagimaru

Last reported at 2017-Oct-17 21:04 UTC. Time now 2017-Oct-18 16:26 UTC.
Position N 34°38' E 134°59'.

Length 42 m; draft 3.5 m.

Type: Tug. MMSI: 431300268.

Date/timePositionNaut miles runAvg speedWind from/ knotsBaromVisibWave heightAir tempDewpointWater temp
2017-Oct-17 21:04N 34°38' E 134°59'114.8
2017-Oct-17 20:58N 34°38' E 135°01'511.4
2017-Oct-17 20:30N 34°36' E 135°07'2 4.5
2017-Oct-17 20:00N 34°34' E 135°08'510.2
2017-Oct-17 19:30N 34°29' E 135°06'1211.8
2017-Oct-17 18:28N 34°18' E 134°60'510.5
2017-Oct-17 18:00N 34°13' E 134°58'4 8.1
2017-Oct-17 17:30N 34°11' E 135°03'611.1
2017-Oct-17 17:01N 34°13' E 135°09'0 0.1
2017-Oct-17 16:30N 34°13' E 135°09'0 0.0
2017-Oct-17 16:00N 34°13' E 135°09'0 0.0
2017-Oct-17 15:30N 34°13' E 135°09'0 0.0
2017-Oct-17 15:00N 34°13' E 135°09'0 0.0
2017-Oct-17 14:30N 34°13' E 135°09'0 0.0
2017-Oct-17 13:30N 34°13' E 135°09'0 0.0
2017-Oct-17 13:00N 34°13' E 135°09'0 0.0
2017-Oct-17 12:30N 34°13' E 135°09'0 0.0
2017-Oct-17 12:00N 34°13' E 135°09'2 3.2
2017-Oct-17 11:31N 34°13' E 135°07'17 9.5
2017-Oct-17 09:41N 34°30' E 135°04'311.6
2017-Oct-17 09:27N 34°32' E 135°05'3 5.7
2017-Oct-17 09:00N 34°35' E 135°05'2 0.1
2017-Oct-16 01:41N 34°36' E 135°03'2 9.8
2017-Oct-16 01:30N 34°36' E 135°05'3 6.4
2017-Oct-16 01:00N 34°34' E 135°09'2011.5
2017-Oct-15 23:16N 34°16' E 134°59'310.7
2017-Oct-15 23:00N 34°13' E 134°59'13 0.2
2017-Oct-13 19:18N 34°22' E 135°10'712.2
2017-Oct-13 18:44N 34°26' E 135°17'312.4
2017-Oct-13 18:29N 34°29' E 135°19'612.5
2017-Oct-13 18:00N 34°33' E 135°24'1 0.1
2017-Oct-13 07:06N 34°34' E 135°24'111.9
2017-Oct-13 07:00N 34°35' E 135°23'4 6.0
2017-Oct-13 06:22N 34°39' E 135°26'0 0.6
2017-Oct-13 05:58N 34°39' E 135°26'0 0.5
2017-Oct-13 05:27N 34°39' E 135°26'2 1.3
2017-Oct-13 04:16N 34°39' E 135°24'1 4.4
2017-Oct-13 04:00N 34°38' E 135°23'1 1.6
2017-Oct-13 03:23N 34°37' E 135°23'5 0.3
2017-Oct-12 10:17N 34°33' E 135°27'2 8.9
2017-Oct-12 10:00N 34°32' E 135°24'2 1.0
2017-Oct-12 08:27N 34°31' E 135°23'1 1.1
2017-Oct-12 07:52N 34°31' E 135°24'1 2.6
2017-Oct-12 07:25N 34°32' E 135°23'3 0.4
2017-Oct-11 23:47N 34°33' E 135°27'0 0.0
2017-Oct-11 23:23N 34°33' E 135°27'0 0.0
2017-Oct-11 22:35N 34°33' E 135°27'0 0.0
2017-Oct-11 22:23N 34°33' E 135°27'0 0.0
2017-Oct-11 21:35N 34°33' E 135°27'0 0.0
2017-Oct-11 21:17N 34°33' E 135°27'0 0.0
2017-Oct-11 20:11N 34°33' E 135°27'0 0.0
2017-Oct-11 19:41N 34°33' E 135°27'0 0.0
2017-Oct-11 19:29N 34°33' E 135°27'0 0.0
2017-Oct-11 18:59N 34°33' E 135°27'0 0.0
2017-Oct-11 18:29N 34°33' E 135°27'0 0.0
2017-Oct-11 17:59N 34°33' E 135°27'0 0.0
2017-Oct-11 17:29N 34°33' E 135°27'0 0.0
2017-Oct-11 16:47N 34°33' E 135°27'1 0.0
2017-Oct-11 00:00N 34°33' E 135°26'1 0.2
2017-Oct-10 21:18N 34°33' E 135°27'0 0.0
2017-Oct-10 20:48N 34°33' E 135°27'0 0.0
2017-Oct-10 20:30N 34°33' E 135°27'0 0.0
2017-Oct-10 18:54N 34°33' E 135°27'0 0.0
2017-Oct-10 18:24N 34°33' E 135°27'0 0.0
2017-Oct-10 17:54N 34°33' E 135°27'0 0.0
2017-Oct-10 17:30N 34°33' E 135°27'0 0.0
2017-Oct-10 17:00N 34°33' E 135°27'0 0.0
2017-Oct-10 02:45N 34°33' E 135°27'2 8.3
2017-Oct-10 02:30N 34°34' E 135°24'510.7
2017-Oct-10 02:00N 34°39' E 135°24'0 0.2
2017-Oct-10 01:30N 34°39' E 135°24'1 2.0
2017-Oct-10 01:00N 34°38' E 135°23'4 7.4
2017-Oct-10 00:30N 34°34' E 135°24'3 5.2
2017-Oct-10 00:00N 34°33' E 135°27'0 0.0
2017-Oct-09 23:27N 34°33' E 135°27'0 0.0
2017-Oct-09 16:33N 34°33' E 135°27'0 0.0
2017-Oct-09 16:27N 34°33' E 135°27'0 0.0
2017-Oct-09 15:45N 34°33' E 135°27'0 0.0
2017-Oct-09 15:21N 34°33' E 135°27'0 0.0
2017-Oct-09 14:57N 34°33' E 135°27'0 0.0
2017-Oct-09 14:27N 34°33' E 135°27'0 0.0
2017-Oct-09 13:57N 34°33' E 135°27'0 0.0
2017-Oct-09 08:57N 34°33' E 135°27'0 0.0
2017-Oct-09 08:27N 34°33' E 135°27'0 0.0
2017-Oct-09 07:57N 34°33' E 135°27'0 0.0
2017-Oct-09 07:27N 34°33' E 135°27'0 0.0
2017-Oct-09 05:09N 34°33' E 135°27'0 0.0
2017-Oct-09 04:39N 34°33' E 135°27'0 0.0
2017-Oct-09 04:15N 34°33' E 135°27'0 0.0
2017-Oct-09 03:51N 34°33' E 135°27'0 0.3
2017-Oct-09 03:27N 34°33' E 135°27'0 0.9
2017-Oct-09 03:01N 34°33' E 135°26'0 0.0
2017-Oct-09 02:28N 34°33' E 135°26'0 0.4
2017-Oct-09 02:00N 34°33' E 135°26'2 4.4
2017-Oct-09 01:30N 34°33' E 135°23'4 6.6
2017-Oct-09 00:58N 34°34' E 135°19'1 1.2
2017-Oct-09 00:31N 34°34' E 135°18'2 4.4
2017-Oct-09 00:00N 34°34' E 135°21'5 9.2
2017-Oct-08 23:30N 34°33' E 135°27'0 0.3
2017-Oct-08 22:58N 34°33' E 135°27'0 0.0
2017-Oct-08 22:18N 34°33' E 135°27'0 0.0
2017-Oct-08 22:00N 34°33' E 135°27'0 0.0
2017-Oct-08 13:17N 34°33' E 135°27'0 0.0
2017-Oct-08 12:53N 34°33' E 135°27'0 0.0
2017-Oct-08 06:09N 34°33' E 135°27'2 8.4
2017-Oct-08 05:57N 34°33' E 135°24'611.8
2017-Oct-08 05:29N 34°30' E 135°19'612.3
2017-Oct-08 05:00N 34°27' E 135°13'1611.2
2017-Oct-08 03:35N 34°16' E 134°59'810.7
2017-Oct-08 02:49N 34°24' E 135°03'413.0
2017-Oct-08 02:30N 34°26' E 135°07'713.5
2017-Oct-08 02:00N 34°30' E 135°13'612.1
2017-Oct-08 01:30N 34°33' E 135°20'4 8.1
2017-Oct-08 00:59N 34°33' E 135°25'0 0.4
2017-Oct-08 00:26N 34°33' E 135°25'1 3.0
2017-Oct-07 23:59N 34°33' E 135°27'0 0.1
2017-Oct-07 23:20N 34°33' E 135°27'0 0.0
2017-Oct-07 22:02N 34°33' E 135°27'0 0.0
2017-Oct-07 21:44N 34°33' E 135°27'0 0.0
2017-Oct-07 21:26N 34°33' E 135°27'  
Track history (hours):
 
Tides and Currents Weather Stations Pressure Air Temp Water Temp Dewpoint Dewpoint Depression Visibility Wind Speed Wind Dir Waves Ship Positions

Kasagimaru

Last reported at 2017-Oct-17 21:04 UTC. Time now 2017-Oct-18 16:26 UTC.
Position N 34°38' E 134°59'.

Length 42 m; draft 3.5 m.

Type: Tug. MMSI: 431300268.

Date/timePositionNaut miles runAvg speedWind from/ knotsBaromVisibWave heightAir tempDewpointWater temp
2017-Oct-17 21:04N 34°38' E 134°59'114.8
2017-Oct-17 20:58N 34°38' E 135°01'511.4
2017-Oct-17 20:30N 34°36' E 135°07'2 4.5
2017-Oct-17 20:00N 34°34' E 135°08'510.2
2017-Oct-17 19:30N 34°29' E 135°06'1211.8
2017-Oct-17 18:28N 34°18' E 134°60'510.5
2017-Oct-17 18:00N 34°13' E 134°58'4 8.1
2017-Oct-17 17:30N 34°11' E 135°03'611.1
2017-Oct-17 17:01N 34°13' E 135°09'0 0.1
2017-Oct-17 16:30N 34°13' E 135°09'0 0.0
2017-Oct-17 16:00N 34°13' E 135°09'0 0.0
2017-Oct-17 15:30N 34°13' E 135°09'0 0.0
2017-Oct-17 15:00N 34°13' E 135°09'0 0.0
2017-Oct-17 14:30N 34°13' E 135°09'0 0.0
2017-Oct-17 13:30N 34°13' E 135°09'0 0.0
2017-Oct-17 13:00N 34°13' E 135°09'0 0.0
2017-Oct-17 12:30N 34°13' E 135°09'0 0.0
2017-Oct-17 12:00N 34°13' E 135°09'2 3.2
2017-Oct-17 11:31N 34°13' E 135°07'17 9.5
2017-Oct-17 09:41N 34°30' E 135°04'311.6
2017-Oct-17 09:27N 34°32' E 135°05'3 5.7
2017-Oct-17 09:00N 34°35' E 135°05'2 0.1
2017-Oct-16 01:41N 34°36' E 135°03'2 9.8
2017-Oct-16 01:30N 34°36' E 135°05'3 6.4
2017-Oct-16 01:00N 34°34' E 135°09'2011.5
2017-Oct-15 23:16N 34°16' E 134°59'310.7
2017-Oct-15 23:00N 34°13' E 134°59'13 0.2
2017-Oct-13 19:18N 34°22' E 135°10'712.2
2017-Oct-13 18:44N 34°26' E 135°17'312.4
2017-Oct-13 18:29N 34°29' E 135°19'612.5
2017-Oct-13 18:00N 34°33' E 135°24'1 0.1
2017-Oct-13 07:06N 34°34' E 135°24'111.9
2017-Oct-13 07:00N 34°35' E 135°23'4 6.0
2017-Oct-13 06:22N 34°39' E 135°26'0 0.6
2017-Oct-13 05:58N 34°39' E 135°26'0 0.5
2017-Oct-13 05:27N 34°39' E 135°26'2 1.3
2017-Oct-13 04:16N 34°39' E 135°24'1 4.4
2017-Oct-13 04:00N 34°38' E 135°23'1 1.6
2017-Oct-13 03:23N 34°37' E 135°23'5 0.3
2017-Oct-12 10:17N 34°33' E 135°27'2 8.9
2017-Oct-12 10:00N 34°32' E 135°24'2 1.0
2017-Oct-12 08:27N 34°31' E 135°23'1 1.1
2017-Oct-12 07:52N 34°31' E 135°24'1 2.6
2017-Oct-12 07:25N 34°32' E 135°23'3 0.4
2017-Oct-11 23:47N 34°33' E 135°27'0 0.0
2017-Oct-11 23:23N 34°33' E 135°27'0 0.0
2017-Oct-11 22:35N 34°33' E 135°27'0 0.0
2017-Oct-11 22:23N 34°33' E 135°27'0 0.0
2017-Oct-11 21:35N 34°33' E 135°27'0 0.0
2017-Oct-11 21:17N 34°33' E 135°27'0 0.0
2017-Oct-11 20:11N 34°33' E 135°27'0 0.0
2017-Oct-11 19:41N 34°33' E 135°27'0 0.0
2017-Oct-11 19:29N 34°33' E 135°27'0 0.0
2017-Oct-11 18:59N 34°33' E 135°27'0 0.0
2017-Oct-11 18:29N 34°33' E 135°27'0 0.0
2017-Oct-11 17:59N 34°33' E 135°27'0 0.0
2017-Oct-11 17:29N 34°33' E 135°27'0 0.0
2017-Oct-11 16:47N 34°33' E 135°27'1 0.0
2017-Oct-11 00:00N 34°33' E 135°26'1 0.2
2017-Oct-10 21:18N 34°33' E 135°27'0 0.0
2017-Oct-10 20:48N 34°33' E 135°27'0 0.0
2017-Oct-10 20:30N 34°33' E 135°27'0 0.0
2017-Oct-10 18:54N 34°33' E 135°27'0 0.0
2017-Oct-10 18:24N 34°33' E 135°27'0 0.0
2017-Oct-10 17:54N 34°33' E 135°27'0 0.0
2017-Oct-10 17:30N 34°33' E 135°27'0 0.0
2017-Oct-10 17:00N 34°33' E 135°27'0 0.0
2017-Oct-10 02:45N 34°33' E 135°27'2 8.3
2017-Oct-10 02:30N 34°34' E 135°24'510.7
2017-Oct-10 02:00N 34°39' E 135°24'0 0.2
2017-Oct-10 01:30N 34°39' E 135°24'1 2.0
2017-Oct-10 01:00N 34°38' E 135°23'4 7.4
2017-Oct-10 00:30N 34°34' E 135°24'3 5.2
2017-Oct-10 00:00N 34°33' E 135°27'0 0.0
2017-Oct-09 23:27N 34°33' E 135°27'0 0.0
2017-Oct-09 16:33N 34°33' E 135°27'0 0.0
2017-Oct-09 16:27N 34°33' E 135°27'0 0.0
2017-Oct-09 15:45N 34°33' E 135°27'0 0.0
2017-Oct-09 15:21N 34°33' E 135°27'0 0.0
2017-Oct-09 14:57N 34°33' E 135°27'0 0.0
2017-Oct-09 14:27N 34°33' E 135°27'0 0.0
2017-Oct-09 13:57N 34°33' E 135°27'0 0.0
2017-Oct-09 08:57N 34°33' E 135°27'0 0.0
2017-Oct-09 08:27N 34°33' E 135°27'0 0.0
2017-Oct-09 07:57N 34°33' E 135°27'0 0.0
2017-Oct-09 07:27N 34°33' E 135°27'0 0.0
2017-Oct-09 05:09N 34°33' E 135°27'0 0.0
2017-Oct-09 04:39N 34°33' E 135°27'0 0.0
2017-Oct-09 04:15N 34°33' E 135°27'0 0.0
2017-Oct-09 03:51N 34°33' E 135°27'0 0.3
2017-Oct-09 03:27N 34°33' E 135°27'0 0.9
2017-Oct-09 03:01N 34°33' E 135°26'0 0.0
2017-Oct-09 02:28N 34°33' E 135°26'0 0.4
2017-Oct-09 02:00N 34°33' E 135°26'2 4.4
2017-Oct-09 01:30N 34°33' E 135°23'4 6.6
2017-Oct-09 00:58N 34°34' E 135°19'1 1.2
2017-Oct-09 00:31N 34°34' E 135°18'2 4.4
2017-Oct-09 00:00N 34°34' E 135°21'5 9.2
2017-Oct-08 23:30N 34°33' E 135°27'0 0.3
2017-Oct-08 22:58N 34°33' E 135°27'0 0.0
2017-Oct-08 22:18N 34°33' E 135°27'0 0.0
2017-Oct-08 22:00N 34°33' E 135°27'0 0.0
2017-Oct-08 13:17N 34°33' E 135°27'0 0.0
2017-Oct-08 12:53N 34°33' E 135°27'0 0.0
2017-Oct-08 06:09N 34°33' E 135°27'2 8.4
2017-Oct-08 05:57N 34°33' E 135°24'611.8
2017-Oct-08 05:29N 34°30' E 135°19'612.3
2017-Oct-08 05:00N 34°27' E 135°13'1611.2
2017-Oct-08 03:35N 34°16' E 134°59'810.7
2017-Oct-08 02:49N 34°24' E 135°03'413.0
2017-Oct-08 02:30N 34°26' E 135°07'713.5
2017-Oct-08 02:00N 34°30' E 135°13'612.1
2017-Oct-08 01:30N 34°33' E 135°20'4 8.1
2017-Oct-08 00:59N 34°33' E 135°25'0 0.4
2017-Oct-08 00:26N 34°33' E 135°25'1 3.0
2017-Oct-07 23:59N 34°33' E 135°27'0 0.1
2017-Oct-07 23:20N 34°33' E 135°27'0 0.0
2017-Oct-07 22:02N 34°33' E 135°27'0 0.0
2017-Oct-07 21:44N 34°33' E 135°27'0 0.0
2017-Oct-07 21:26N 34°33' E 135°27'  

Dump ship's entire track history